sensor_id;sensor_type;location;lat;lon;timestamp;temperature;humidity
34644;DHT22;26931;43.498;-1.506;2022-10-18T00:00:39;20.90;91.10
34644;DHT22;26931;43.498;-1.506;2022-10-18T00:03:05;20.90;91.10
34644;DHT22;26931;43.498;-1.506;2022-10-18T00:05:31;20.80;91.10
34644;DHT22;26931;43.498;-1.506;2022-10-18T00:07:57;20.70;91.10
34644;DHT22;26931;43.498;-1.506;2022-10-18T00:10:24;20.80;91.20
34644;DHT22;26931;43.498;-1.506;2022-10-18T00:12:50;20.70;91.20
34644;DHT22;26931;43.498;-1.506;2022-10-18T00:15:17;20.60;91.30
34644;DHT22;26931;43.498;-1.506;2022-10-18T00:17:43;20.60;91.30
34644;DHT22;26931;43.498;-1.506;2022-10-18T00:20:10;20.60;91.40
34644;DHT22;26931;43.498;-1.506;2022-10-18T00:22:37;20.60;91.50
34644;DHT22;26931;43.498;-1.506;2022-10-18T00:25:05;20.60;91.60
34644;DHT22;26931;43.498;-1.506;2022-10-18T00:27:32;20.60;91.60
34644;DHT22;26931;43.498;-1.506;2022-10-18T00:29:58;20.50;91.60
34644;DHT22;26931;43.498;-1.506;2022-10-18T00:32:25;20.40;91.80
34644;DHT22;26931;43.498;-1.506;2022-10-18T00:34:51;20.40;91.80
34644;DHT22;26931;43.498;-1.506;2022-10-18T00:37:17;20.40;91.80
34644;DHT22;26931;43.498;-1.506;2022-10-18T00:39:44;20.40;91.80
34644;DHT22;26931;43.498;-1.506;2022-10-18T00:42:20;20.40;91.80
34644;DHT22;26931;43.498;-1.506;2022-10-18T00:47:17;20.50;91.90
34644;DHT22;26931;43.498;-1.506;2022-10-18T00:49:48;20.60;91.90
34644;DHT22;26931;43.498;-1.506;2022-10-18T00:52:20;20.40;91.90
34644;DHT22;26931;43.498;-1.506;2022-10-18T00:54:47;20.50;91.80
34644;DHT22;26931;43.498;-1.506;2022-10-18T00:57:14;20.40;91.70
34644;DHT22;26931;43.498;-1.506;2022-10-18T00:59:42;20.40;91.70
34644;DHT22;26931;43.498;-1.506;2022-10-18T01:02:08;20.50;91.80
34644;DHT22;26931;43.498;-1.506;2022-10-18T01:04:35;20.30;91.80
34644;DHT22;26931;43.498;-1.506;2022-10-18T01:07:09;20.20;91.90
34644;DHT22;26931;43.498;-1.506;2022-10-18T01:10:21;20.10;92.00
34644;DHT22;26931;43.498;-1.506;2022-10-18T01:13:40;20.20;92.30
34644;DHT22;26931;43.498;-1.506;2022-10-18T01:21:33;20.20;91.90
34644;DHT22;26931;43.498;-1.506;2022-10-18T01:32:22;20.10;92.20
34644;DHT22;26931;43.498;-1.506;2022-10-18T01:34:53;20.10;92.20
34644;DHT22;26931;43.498;-1.506;2022-10-18T01:37:21;20.10;92.10
34644;DHT22;26931;43.498;-1.506;2022-10-18T01:39:52;20.10;92.10
34644;DHT22;26931;43.498;-1.506;2022-10-18T01:42:19;20.20;92.20
34644;DHT22;26931;43.498;-1.506;2022-10-18T01:44:47;20.10;92.10
34644;DHT22;26931;43.498;-1.506;2022-10-18T01:47:14;20.10;92.10
34644;DHT22;26931;43.498;-1.506;2022-10-18T01:49:41;20.00;92.20
34644;DHT22;26931;43.498;-1.506;2022-10-18T01:52:13;20.00;92.20
34644;DHT22;26931;43.498;-1.506;2022-10-18T01:54:43;20.00;92.30
34644;DHT22;26931;43.498;-1.506;2022-10-18T02:00:17;20.10;92.30
34644;DHT22;26931;43.498;-1.506;2022-10-18T02:02:51;20.10;92.20
34644;DHT22;26931;43.498;-1.506;2022-10-18T02:11:04;20.00;92.60
34644;DHT22;26931;43.498;-1.506;2022-10-18T02:13:38;20.00;92.20
34644;DHT22;26931;43.498;-1.506;2022-10-18T02:16:09;20.10;92.30
34644;DHT22;26931;43.498;-1.506;2022-10-18T02:18:40;20.10;92.10
34644;DHT22;26931;43.498;-1.506;2022-10-18T02:21:10;20.10;92.10
34644;DHT22;26931;43.498;-1.506;2022-10-18T02:23:37;20.30;92.30
34644;DHT22;26931;43.498;-1.506;2022-10-18T02:26:04;20.10;92.10
34644;DHT22;26931;43.498;-1.506;2022-10-18T02:28:30;20.10;92.10
34644;DHT22;26931;43.498;-1.506;2022-10-18T02:31:14;20.20;92.00
34644;DHT22;26931;43.498;-1.506;2022-10-18T02:33:52;20.20;92.10
34644;DHT22;26931;43.498;-1.506;2022-10-18T02:36:37;20.10;91.90
34644;DHT22;26931;43.498;-1.506;2022-10-18T02:39:15;20.20;91.90
34644;DHT22;26931;43.498;-1.506;2022-10-18T02:41:43;20.30;92.10
34644;DHT22;26931;43.498;-1.506;2022-10-18T02:44:09;20.10;92.00
34644;DHT22;26931;43.498;-1.506;2022-10-18T02:46:36;20.20;92.00
34644;DHT22;26931;43.498;-1.506;2022-10-18T02:49:02;20.20;92.00
34644;DHT22;26931;43.498;-1.506;2022-10-18T02:51:28;20.20;92.00
34644;DHT22;26931;43.498;-1.506;2022-10-18T02:53:54;20.10;92.00
34644;DHT22;26931;43.498;-1.506;2022-10-18T02:56:20;20.10;92.00
34644;DHT22;26931;43.498;-1.506;2022-10-18T02:58:46;20.10;92.00
34644;DHT22;26931;43.498;-1.506;2022-10-18T03:01:12;20.10;92.00
34644;DHT22;26931;43.498;-1.506;2022-10-18T03:03:38;20.10;92.00
34644;DHT22;26931;43.498;-1.506;2022-10-18T03:06:04;20.10;91.90
34644;DHT22;26931;43.498;-1.506;2022-10-18T03:08:30;20.10;91.90
34644;DHT22;26931;43.498;-1.506;2022-10-18T03:10:56;20.10;91.90
34644;DHT22;26931;43.498;-1.506;2022-10-18T03:13:22;20.00;91.80
34644;DHT22;26931;43.498;-1.506;2022-10-18T03:15:48;20.00;91.90
34644;DHT22;26931;43.498;-1.506;2022-10-18T03:18:14;20.00;92.00
34644;DHT22;26931;43.498;-1.506;2022-10-18T03:20:40;19.90;91.90
34644;DHT22;26931;43.498;-1.506;2022-10-18T03:23:06;19.80;91.90
34644;DHT22;26931;43.498;-1.506;2022-10-18T03:25:33;19.90;92.00
34644;DHT22;26931;43.498;-1.506;2022-10-18T03:27:59;20.00;92.00
34644;DHT22;26931;43.498;-1.506;2022-10-18T03:30:26;19.80;92.00
34644;DHT22;26931;43.498;-1.506;2022-10-18T03:32:52;19.90;92.00
34644;DHT22;26931;43.498;-1.506;2022-10-18T03:35:18;19.80;92.10
34644;DHT22;26931;43.498;-1.506;2022-10-18T03:37:44;19.90;92.10
34644;DHT22;26931;43.498;-1.506;2022-10-18T03:40:11;19.80;92.00
34644;DHT22;26931;43.498;-1.506;2022-10-18T03:42:37;19.90;92.00
34644;DHT22;26931;43.498;-1.506;2022-10-18T03:45:03;19.80;91.90
34644;DHT22;26931;43.498;-1.506;2022-10-18T03:47:29;19.90;91.90
34644;DHT22;26931;43.498;-1.506;2022-10-18T03:49:55;19.90;91.90
34644;DHT22;26931;43.498;-1.506;2022-10-18T03:52:21;19.80;91.80
34644;DHT22;26931;43.498;-1.506;2022-10-18T03:54:47;19.90;91.80
34644;DHT22;26931;43.498;-1.506;2022-10-18T03:57:13;19.80;91.70
34644;DHT22;26931;43.498;-1.506;2022-10-18T03:59:39;19.80;91.70
34644;DHT22;26931;43.498;-1.506;2022-10-18T04:02:05;19.60;91.70
34644;DHT22;26931;43.498;-1.506;2022-10-18T04:04:31;19.80;91.80
34644;DHT22;26931;43.498;-1.506;2022-10-18T04:06:57;19.70;91.70
34644;DHT22;26931;43.498;-1.506;2022-10-18T04:09:23;19.70;91.80
34644;DHT22;26931;43.498;-1.506;2022-10-18T04:11:50;19.60;91.80
34644;DHT22;26931;43.498;-1.506;2022-10-18T04:14:17;19.80;91.90
34644;DHT22;26931;43.498;-1.506;2022-10-18T04:16:43;19.50;91.90
34644;DHT22;26931;43.498;-1.506;2022-10-18T04:19:09;19.60;91.80
34644;DHT22;26931;43.498;-1.506;2022-10-18T04:21:35;19.60;91.90
34644;DHT22;26931;43.498;-1.506;2022-10-18T04:24:01;19.60;91.80
34644;DHT22;26931;43.498;-1.506;2022-10-18T04:26:27;19.70;91.80
34644;DHT22;26931;43.498;-1.506;2022-10-18T04:28:53;19.70;91.70
34644;DHT22;26931;43.498;-1.506;2022-10-18T04:31:19;19.60;91.60
34644;DHT22;26931;43.498;-1.506;2022-10-18T04:33:45;19.60;91.70
34644;DHT22;26931;43.498;-1.506;2022-10-18T04:36:11;19.50;91.80
34644;DHT22;26931;43.498;-1.506;2022-10-18T04:38:37;19.60;91.90
34644;DHT22;26931;43.498;-1.506;2022-10-18T04:41:03;19.40;91.90
34644;DHT22;26931;43.498;-1.506;2022-10-18T04:43:29;19.40;92.00
34644;DHT22;26931;43.498;-1.506;2022-10-18T04:45:55;19.30;92.00
34644;DHT22;26931;43.498;-1.506;2022-10-18T04:48:21;19.20;92.10
34644;DHT22;26931;43.498;-1.506;2022-10-18T04:50:48;19.10;92.20
34644;DHT22;26931;43.498;-1.506;2022-10-18T04:53:16;19.10;92.70
34644;DHT22;26931;43.498;-1.506;2022-10-18T04:55:48;19.20;92.30
34644;DHT22;26931;43.498;-1.506;2022-10-18T04:58:18;19.30;92.30
34644;DHT22;26931;43.498;-1.506;2022-10-18T05:00:44;19.30;92.10
34644;DHT22;26931;43.498;-1.506;2022-10-18T05:03:13;19.30;92.10
34644;DHT22;26931;43.498;-1.506;2022-10-18T05:05:39;19.40;92.10
34644;DHT22;26931;43.498;-1.506;2022-10-18T05:08:05;19.40;92.00
34644;DHT22;26931;43.498;-1.506;2022-10-18T05:10:32;19.50;92.00
34644;DHT22;26931;43.498;-1.506;2022-10-18T05:12:58;19.50;91.90
34644;DHT22;26931;43.498;-1.506;2022-10-18T05:15:24;19.50;91.90
34644;DHT22;26931;43.498;-1.506;2022-10-18T05:17:50;19.50;91.90
34644;DHT22;26931;43.498;-1.506;2022-10-18T05:20:16;19.40;91.90
34644;DHT22;26931;43.498;-1.506;2022-10-18T05:22:42;19.40;92.00
34644;DHT22;26931;43.498;-1.506;2022-10-18T05:25:08;19.30;92.00
34644;DHT22;26931;43.498;-1.506;2022-10-18T05:27:34;19.40;92.10
34644;DHT22;26931;43.498;-1.506;2022-10-18T05:30:00;19.30;92.10
34644;DHT22;26931;43.498;-1.506;2022-10-18T05:32:26;19.30;92.20
34644;DHT22;26931;43.498;-1.506;2022-10-18T05:34:52;19.20;92.20
34644;DHT22;26931;43.498;-1.506;2022-10-18T05:37:18;19.10;92.40
34644;DHT22;26931;43.498;-1.506;2022-10-18T05:39:46;19.10;92.40
34644;DHT22;26931;43.498;-1.506;2022-10-18T05:42:12;19.10;92.40
34644;DHT22;26931;43.498;-1.506;2022-10-18T05:44:38;19.10;92.40
34644;DHT22;26931;43.498;-1.506;2022-10-18T05:47:04;19.10;92.40
34644;DHT22;26931;43.498;-1.506;2022-10-18T05:49:30;19.20;92.30
34644;DHT22;26931;43.498;-1.506;2022-10-18T05:51:56;19.40;92.30
34644;DHT22;26931;43.498;-1.506;2022-10-18T05:54:22;19.30;92.10
34644;DHT22;26931;43.498;-1.506;2022-10-18T05:56:48;19.30;92.10
34644;DHT22;26931;43.498;-1.506;2022-10-18T05:59:14;19.30;92.00
34644;DHT22;26931;43.498;-1.506;2022-10-18T06:01:41;19.30;92.00
34644;DHT22;26931;43.498;-1.506;2022-10-18T06:04:08;19.40;92.00
34644;DHT22;26931;43.498;-1.506;2022-10-18T06:06:36;19.30;91.90
34644;DHT22;26931;43.498;-1.506;2022-10-18T06:09:03;19.30;91.90
34644;DHT22;26931;43.498;-1.506;2022-10-18T06:11:30;19.30;91.90
34644;DHT22;26931;43.498;-1.506;2022-10-18T06:13:56;19.20;91.80
34644;DHT22;26931;43.498;-1.506;2022-10-18T06:16:23;19.20;91.90
34644;DHT22;26931;43.498;-1.506;2022-10-18T06:18:52;19.20;91.90
34644;DHT22;26931;43.498;-1.506;2022-10-18T06:21:19;19.30;91.80
34644;DHT22;26931;43.498;-1.506;2022-10-18T06:23:49;19.20;91.70
34644;DHT22;26931;43.498;-1.506;2022-10-18T06:26:15;19.30;91.70
34644;DHT22;26931;43.498;-1.506;2022-10-18T06:28:42;19.20;91.60
34644;DHT22;26931;43.498;-1.506;2022-10-18T06:31:10;19.30;91.50
34644;DHT22;26931;43.498;-1.506;2022-10-18T06:33:36;19.30;91.50
34644;DHT22;26931;43.498;-1.506;2022-10-18T06:36:14;19.40;91.50
34644;DHT22;26931;43.498;-1.506;2022-10-18T06:38:40;19.40;91.40
34644;DHT22;26931;43.498;-1.506;2022-10-18T06:41:07;19.40;91.40
34644;DHT22;26931;43.498;-1.506;2022-10-18T06:43:34;19.40;91.30
34644;DHT22;26931;43.498;-1.506;2022-10-18T06:46:02;19.40;91.30
34644;DHT22;26931;43.498;-1.506;2022-10-18T06:48:30;19.40;91.20
34644;DHT22;26931;43.498;-1.506;2022-10-18T06:50:58;19.40;91.10
34644;DHT22;26931;43.498;-1.506;2022-10-18T06:53:27;19.40;91.10
34644;DHT22;26931;43.498;-1.506;2022-10-18T06:56:02;19.50;91.10
34644;DHT22;26931;43.498;-1.506;2022-10-18T06:58:29;19.50;91.00
34644;DHT22;26931;43.498;-1.506;2022-10-18T07:00:56;19.50;90.90
34644;DHT22;26931;43.498;-1.506;2022-10-18T07:03:24;19.50;90.90
34644;DHT22;26931;43.498;-1.506;2022-10-18T07:05:51;19.50;90.90
34644;DHT22;26931;43.498;-1.506;2022-10-18T07:08:18;19.50;90.90
34644;DHT22;26931;43.498;-1.506;2022-10-18T07:10:51;19.50;90.80
34644;DHT22;26931;43.498;-1.506;2022-10-18T07:13:17;19.50;90.90
34644;DHT22;26931;43.498;-1.506;2022-10-18T07:15:44;19.50;90.90
34644;DHT22;26931;43.498;-1.506;2022-10-18T07:18:10;19.50;90.80
34644;DHT22;26931;43.498;-1.506;2022-10-18T07:20:36;19.50;90.80
34644;DHT22;26931;43.498;-1.506;2022-10-18T07:23:02;19.50;90.80
34644;DHT22;26931;43.498;-1.506;2022-10-18T07:25:30;19.50;90.90
34644;DHT22;26931;43.498;-1.506;2022-10-18T07:27:56;19.50;90.90
34644;DHT22;26931;43.498;-1.506;2022-10-18T07:30:22;19.50;90.90
34644;DHT22;26931;43.498;-1.506;2022-10-18T07:32:50;19.50;91.10
34644;DHT22;26931;43.498;-1.506;2022-10-18T07:35:16;19.50;91.30
34644;DHT22;26931;43.498;-1.506;2022-10-18T07:37:43;19.50;90.90
34644;DHT22;26931;43.498;-1.506;2022-10-18T07:40:09;19.60;90.90
34644;DHT22;26931;43.498;-1.506;2022-10-18T07:42:36;19.50;91.10
34644;DHT22;26931;43.498;-1.506;2022-10-18T07:45:03;19.60;90.90
34644;DHT22;26931;43.498;-1.506;2022-10-18T07:47:29;19.60;90.90
34644;DHT22;26931;43.498;-1.506;2022-10-18T07:49:57;19.60;90.90
34644;DHT22;26931;43.498;-1.506;2022-10-18T07:52:23;19.70;90.80
34644;DHT22;26931;43.498;-1.506;2022-10-18T07:54:49;19.70;90.80
34644;DHT22;26931;43.498;-1.506;2022-10-18T07:57:15;19.80;90.80
34644;DHT22;26931;43.498;-1.506;2022-10-18T07:59:42;19.80;90.80
34644;DHT22;26931;43.498;-1.506;2022-10-18T08:02:10;19.80;90.80
34644;DHT22;26931;43.498;-1.506;2022-10-18T08:04:36;19.80;90.70
34644;DHT22;26931;43.498;-1.506;2022-10-18T08:07:03;19.90;90.70
34644;DHT22;26931;43.498;-1.506;2022-10-18T08:09:29;20.10;90.80
34644;DHT22;26931;43.498;-1.506;2022-10-18T08:11:55;20.00;90.60
34644;DHT22;26931;43.498;-1.506;2022-10-18T08:14:21;20.00;90.60
34644;DHT22;26931;43.498;-1.506;2022-10-18T08:16:47;20.10;90.50
34644;DHT22;26931;43.498;-1.506;2022-10-18T08:19:13;20.00;90.50
34644;DHT22;26931;43.498;-1.506;2022-10-18T08:21:39;19.90;90.50
34644;DHT22;26931;43.498;-1.506;2022-10-18T08:24:05;20.10;90.80
34644;DHT22;26931;43.498;-1.506;2022-10-18T08:26:31;20.10;90.40
34644;DHT22;26931;43.498;-1.506;2022-10-18T08:28:57;20.00;90.50
34644;DHT22;26931;43.498;-1.506;2022-10-18T08:31:24;20.00;90.70
34644;DHT22;26931;43.498;-1.506;2022-10-18T08:33:50;19.90;90.70
34644;DHT22;26931;43.498;-1.506;2022-10-18T08:36:16;20.00;90.80
34644;DHT22;26931;43.498;-1.506;2022-10-18T08:38:43;20.00;90.90
34644;DHT22;26931;43.498;-1.506;2022-10-18T08:46:36;20.20;90.80
34644;DHT22;26931;43.498;-1.506;2022-10-18T08:49:04;20.20;90.70
34644;DHT22;26931;43.498;-1.506;2022-10-18T08:51:41;20.30;90.60
34644;DHT22;26931;43.498;-1.506;2022-10-18T08:54:12;20.30;90.60
34644;DHT22;26931;43.498;-1.506;2022-10-18T08:56:42;20.40;90.60
34644;DHT22;26931;43.498;-1.506;2022-10-18T08:59:11;20.80;90.50
34644;DHT22;26931;43.498;-1.506;2022-10-18T09:01:50;20.70;90.50
34644;DHT22;26931;43.498;-1.506;2022-10-18T09:04:36;20.80;90.40
34644;DHT22;26931;43.498;-1.506;2022-10-18T09:07:43;20.90;90.30
34644;DHT22;26931;43.498;-1.506;2022-10-18T09:13:25;21.20;90.10
34644;DHT22;26931;43.498;-1.506;2022-10-18T09:16:05;21.40;90.00
34644;DHT22;26931;43.498;-1.506;2022-10-18T09:18:54;21.40;89.90
34644;DHT22;26931;43.498;-1.506;2022-10-18T09:24:13;21.60;89.70
34644;DHT22;26931;43.498;-1.506;2022-10-18T09:26:48;21.70;89.50
34644;DHT22;26931;43.498;-1.506;2022-10-18T09:34:55;21.90;89.40
34644;DHT22;26931;43.498;-1.506;2022-10-18T09:37:23;22.00;89.20
34644;DHT22;26931;43.498;-1.506;2022-10-18T09:39:58;22.30;89.20
34644;DHT22;26931;43.498;-1.506;2022-10-18T09:42:39;22.10;88.90
34644;DHT22;26931;43.498;-1.506;2022-10-18T09:45:38;22.20;88.80
34644;DHT22;26931;43.498;-1.506;2022-10-18T09:48:27;22.20;88.70
34644;DHT22;26931;43.498;-1.506;2022-10-18T09:51:01;22.30;88.60
34644;DHT22;26931;43.498;-1.506;2022-10-18T09:56:31;22.60;88.20
34644;DHT22;26931;43.498;-1.506;2022-10-18T09:59:01;22.60;88.00
34644;DHT22;26931;43.498;-1.506;2022-10-18T10:01:29;22.80;88.00
34644;DHT22;26931;43.498;-1.506;2022-10-18T10:03:56;22.70;87.60
34644;DHT22;26931;43.498;-1.506;2022-10-18T10:06:31;22.90;87.50
34644;DHT22;26931;43.498;-1.506;2022-10-18T10:09:00;22.90;87.30
34644;DHT22;26931;43.498;-1.506;2022-10-18T10:11:42;23.20;87.10
34644;DHT22;26931;43.498;-1.506;2022-10-18T10:14:15;23.40;86.70
34644;DHT22;26931;43.498;-1.506;2022-10-18T10:17:03;23.50;86.30
34644;DHT22;26931;43.498;-1.506;2022-10-18T10:19:52;23.60;85.90
34644;DHT22;26931;43.498;-1.506;2022-10-18T10:22:43;23.70;85.70
34644;DHT22;26931;43.498;-1.506;2022-10-18T10:25:27;23.80;85.20
34644;DHT22;26931;43.498;-1.506;2022-10-18T10:27:56;23.90;84.50
34644;DHT22;26931;43.498;-1.506;2022-10-18T10:30:34;24.00;83.30
34644;DHT22;26931;43.498;-1.506;2022-10-18T10:33:01;24.20;81.40
34644;DHT22;26931;43.498;-1.506;2022-10-18T10:35:36;24.30;80.20
34644;DHT22;26931;43.498;-1.506;2022-10-18T10:38:03;24.50;78.60
34644;DHT22;26931;43.498;-1.506;2022-10-18T10:40:34;24.50;77.40
34644;DHT22;26931;43.498;-1.506;2022-10-18T10:43:11;24.60;76.40
34644;DHT22;26931;43.498;-1.506;2022-10-18T10:46:16;24.70;75.80
34644;DHT22;26931;43.498;-1.506;2022-10-18T10:48:58;24.80;75.00
34644;DHT22;26931;43.498;-1.506;2022-10-18T10:51:32;24.80;74.90
34644;DHT22;26931;43.498;-1.506;2022-10-18T10:54:13;24.90;74.90
34644;DHT22;26931;43.498;-1.506;2022-10-18T10:59:50;25.10;74.80
34644;DHT22;26931;43.498;-1.506;2022-10-18T11:04:52;25.30;73.70
34644;DHT22;26931;43.498;-1.506;2022-10-18T11:07:35;25.40;72.90
34644;DHT22;26931;43.498;-1.506;2022-10-18T11:12:47;25.50;72.00
34644;DHT22;26931;43.498;-1.506;2022-10-18T11:18:16;25.80;71.40
34644;DHT22;26931;43.498;-1.506;2022-10-18T11:21:03;25.70;70.70
34644;DHT22;26931;43.498;-1.506;2022-10-18T11:23:43;25.80;70.50
34644;DHT22;26931;43.498;-1.506;2022-10-18T11:29:02;26.00;69.30
34644;DHT22;26931;43.498;-1.506;2022-10-18T11:41:07;26.30;67.80
34644;DHT22;26931;43.498;-1.506;2022-10-18T11:44:18;26.30;67.20
34644;DHT22;26931;43.498;-1.506;2022-10-18T11:49:12;26.30;66.80
34644;DHT22;26931;43.498;-1.506;2022-10-18T11:51:47;26.30;66.30
34644;DHT22;26931;43.498;-1.506;2022-10-18T11:54:43;26.40;65.80
34644;DHT22;26931;43.498;-1.506;2022-10-18T11:57:18;26.40;65.00
34644;DHT22;26931;43.498;-1.506;2022-10-18T12:03:05;26.40;65.60
34644;DHT22;26931;43.498;-1.506;2022-10-18T12:05:37;26.20;66.80
34644;DHT22;26931;43.498;-1.506;2022-10-18T12:10:36;26.20;67.90
34644;DHT22;26931;43.498;-1.506;2022-10-18T12:13:07;26.50;67.10
34644;DHT22;26931;43.498;-1.506;2022-10-18T12:15:38;26.40;65.90
34644;DHT22;26931;43.498;-1.506;2022-10-18T12:18:14;26.50;65.00
34644;DHT22;26931;43.498;-1.506;2022-10-18T12:20:53;26.70;64.20
34644;DHT22;26931;43.498;-1.506;2022-10-18T12:26:00;26.80;62.90
34644;DHT22;26931;43.498;-1.506;2022-10-18T12:31:33;26.90;62.20
34644;DHT22;26931;43.498;-1.506;2022-10-18T12:37:15;27.00;61.40
34644;DHT22;26931;43.498;-1.506;2022-10-18T12:39:52;27.00;60.90
34644;DHT22;26931;43.498;-1.506;2022-10-18T12:42:24;27.00;61.10
34644;DHT22;26931;43.498;-1.506;2022-10-18T12:47:51;27.00;60.70
34644;DHT22;26931;43.498;-1.506;2022-10-18T12:53:16;27.20;60.50
34644;DHT22;26931;43.498;-1.506;2022-10-18T12:55:46;27.30;60.20
34644;DHT22;26931;43.498;-1.506;2022-10-18T13:19:07;27.40;58.20
34644;DHT22;26931;43.498;-1.506;2022-10-18T13:27:15;27.60;57.50
34644;DHT22;26931;43.498;-1.506;2022-10-18T13:32:52;27.80;57.00
34644;DHT22;26931;43.498;-1.506;2022-10-18T13:38:46;27.80;56.70
34644;DHT22;26931;43.498;-1.506;2022-10-18T13:41:28;27.90;56.40
34644;DHT22;26931;43.498;-1.506;2022-10-18T13:49:33;27.90;55.70
34644;DHT22;26931;43.498;-1.506;2022-10-18T13:58:19;27.90;55.00
34644;DHT22;26931;43.498;-1.506;2022-10-18T14:01:22;27.80;55.00
34644;DHT22;26931;43.498;-1.506;2022-10-18T14:07:10;27.70;54.80
34644;DHT22;26931;43.498;-1.506;2022-10-18T14:09:47;27.70;55.10
34644;DHT22;26931;43.498;-1.506;2022-10-18T14:12:27;27.60;54.90
34644;DHT22;26931;43.498;-1.506;2022-10-18T14:14:55;27.70;55.00
34644;DHT22;26931;43.498;-1.506;2022-10-18T14:17:38;27.60;55.30
34644;DHT22;26931;43.498;-1.506;2022-10-18T14:20:15;27.80;55.70
34644;DHT22;26931;43.498;-1.506;2022-10-18T14:25:38;27.60;59.40
34644;DHT22;26931;43.498;-1.506;2022-10-18T14:28:06;27.60;60.70
34644;DHT22;26931;43.498;-1.506;2022-10-18T14:30:34;27.70;62.60
34644;DHT22;26931;43.498;-1.506;2022-10-18T14:33:00;27.70;63.80
34644;DHT22;26931;43.498;-1.506;2022-10-18T14:35:30;27.90;65.00
34644;DHT22;26931;43.498;-1.506;2022-10-18T14:37:56;27.80;65.60
34644;DHT22;26931;43.498;-1.506;2022-10-18T14:42:52;27.80;66.60
34644;DHT22;26931;43.498;-1.506;2022-10-18T14:45:21;27.80;67.00
34644;DHT22;26931;43.498;-1.506;2022-10-18T14:47:48;27.80;67.10
34644;DHT22;26931;43.498;-1.506;2022-10-18T14:50:25;27.80;66.80
34644;DHT22;26931;43.498;-1.506;2022-10-18T14:52:52;27.90;67.10
34644;DHT22;26931;43.498;-1.506;2022-10-18T14:55:28;27.90;67.30
34644;DHT22;26931;43.498;-1.506;2022-10-18T14:57:55;27.90;67.30
34644;DHT22;26931;43.498;-1.506;2022-10-18T15:00:34;27.80;67.10
34644;DHT22;26931;43.498;-1.506;2022-10-18T15:03:02;27.80;67.40
34644;DHT22;26931;43.498;-1.506;2022-10-18T15:05:29;27.80;67.80
34644;DHT22;26931;43.498;-1.506;2022-10-18T15:07:56;27.80;68.20
34644;DHT22;26931;43.498;-1.506;2022-10-18T15:10:32;27.80;68.80
34644;DHT22;26931;43.498;-1.506;2022-10-18T15:13:02;27.70;69.40
34644;DHT22;26931;43.498;-1.506;2022-10-18T15:15:31;27.60;69.90
34644;DHT22;26931;43.498;-1.506;2022-10-18T15:17:58;27.50;70.50
34644;DHT22;26931;43.498;-1.506;2022-10-18T15:20:31;27.60;71.20
34644;DHT22;26931;43.498;-1.506;2022-10-18T15:23:23;27.60;71.80
34644;DHT22;26931;43.498;-1.506;2022-10-18T15:25:50;27.50;72.10
34644;DHT22;26931;43.498;-1.506;2022-10-18T15:28:27;27.50;72.40
34644;DHT22;26931;43.498;-1.506;2022-10-18T15:30:54;27.50;72.80
34644;DHT22;26931;43.498;-1.506;2022-10-18T15:33:24;27.70;72.90
34644;DHT22;26931;43.498;-1.506;2022-10-18T15:35:52;27.50;72.90
34644;DHT22;26931;43.498;-1.506;2022-10-18T15:38:29;27.40;73.00
34644;DHT22;26931;43.498;-1.506;2022-10-18T15:41:00;27.20;73.20
34644;DHT22;26931;43.498;-1.506;2022-10-18T15:46:00;27.30;73.70
34644;DHT22;26931;43.498;-1.506;2022-10-18T15:48:40;27.40;73.90
34644;DHT22;26931;43.498;-1.506;2022-10-18T15:53:53;27.20;73.70
34644;DHT22;26931;43.498;-1.506;2022-10-18T15:56:35;27.10;73.90
34644;DHT22;26931;43.498;-1.506;2022-10-18T15:59:23;27.30;74.50
34644;DHT22;26931;43.498;-1.506;2022-10-18T16:01:49;27.00;74.80
34644;DHT22;26931;43.498;-1.506;2022-10-18T16:04:31;27.10;75.00
34644;DHT22;26931;43.498;-1.506;2022-10-18T16:06:58;27.00;75.20
34644;DHT22;26931;43.498;-1.506;2022-10-18T16:09:26;26.90;75.30
34644;DHT22;26931;43.498;-1.506;2022-10-18T16:11:53;26.90;75.80
34644;DHT22;26931;43.498;-1.506;2022-10-18T16:14:20;26.90;76.40
34644;DHT22;26931;43.498;-1.506;2022-10-18T16:16:49;26.70;76.90
34644;DHT22;26931;43.498;-1.506;2022-10-18T16:19:16;26.70;77.40
34644;DHT22;26931;43.498;-1.506;2022-10-18T16:21:47;26.70;77.80
34644;DHT22;26931;43.498;-1.506;2022-10-18T16:24:20;26.70;78.20
34644;DHT22;26931;43.498;-1.506;2022-10-18T16:26:47;26.60;78.50
34644;DHT22;26931;43.498;-1.506;2022-10-18T16:29:20;26.60;78.70
34644;DHT22;26931;43.498;-1.506;2022-10-18T16:31:49;26.60;78.60
34644;DHT22;26931;43.498;-1.506;2022-10-18T16:34:16;26.60;78.60
34644;DHT22;26931;43.498;-1.506;2022-10-18T16:36:43;26.50;78.90
34644;DHT22;26931;43.498;-1.506;2022-10-18T16:39:17;26.40;79.40
34644;DHT22;26931;43.498;-1.506;2022-10-18T16:41:44;26.40;79.90
34644;DHT22;26931;43.498;-1.506;2022-10-18T16:44:10;26.40;80.00
34644;DHT22;26931;43.498;-1.506;2022-10-18T16:46:37;26.30;80.20
34644;DHT22;26931;43.498;-1.506;2022-10-18T16:49:04;26.20;80.40
34644;DHT22;26931;43.498;-1.506;2022-10-18T16:51:30;26.20;80.70
34644;DHT22;26931;43.498;-1.506;2022-10-18T16:53:57;26.10;80.90
34644;DHT22;26931;43.498;-1.506;2022-10-18T16:56:30;26.20;81.30
34644;DHT22;26931;43.498;-1.506;2022-10-18T16:58:57;26.10;81.80
34644;DHT22;26931;43.498;-1.506;2022-10-18T17:01:24;26.00;82.10
34644;DHT22;26931;43.498;-1.506;2022-10-18T17:03:51;26.00;82.50
34644;DHT22;26931;43.498;-1.506;2022-10-18T17:06:23;26.00;82.80
34644;DHT22;26931;43.498;-1.506;2022-10-18T17:08:50;25.90;83.10
34644;DHT22;26931;43.498;-1.506;2022-10-18T17:11:16;25.90;83.40
34644;DHT22;26931;43.498;-1.506;2022-10-18T17:13:43;25.90;83.60
34644;DHT22;26931;43.498;-1.506;2022-10-18T17:18:44;25.70;84.30
34644;DHT22;26931;43.498;-1.506;2022-10-18T17:21:10;25.70;84.60
34644;DHT22;26931;43.498;-1.506;2022-10-18T17:23:36;25.60;84.90
34644;DHT22;26931;43.498;-1.506;2022-10-18T17:26:02;25.70;85.10
34644;DHT22;26931;43.498;-1.506;2022-10-18T17:28:28;25.60;85.20
34644;DHT22;26931;43.498;-1.506;2022-10-18T17:30:55;25.80;85.40
34644;DHT22;26931;43.498;-1.506;2022-10-18T17:33:21;25.50;85.30
34644;DHT22;26931;43.498;-1.506;2022-10-18T17:35:47;25.50;85.50
34644;DHT22;26931;43.498;-1.506;2022-10-18T17:38:14;25.50;85.80
34644;DHT22;26931;43.498;-1.506;2022-10-18T17:40:41;25.40;86.10
34644;DHT22;26931;43.498;-1.506;2022-10-18T17:43:07;25.30;86.40
34644;DHT22;26931;43.498;-1.506;2022-10-18T17:45:33;25.30;86.80
34644;DHT22;26931;43.498;-1.506;2022-10-18T17:48:00;25.20;87.00
34644;DHT22;26931;43.498;-1.506;2022-10-18T17:50:26;25.20;87.30
34644;DHT22;26931;43.498;-1.506;2022-10-18T17:52:53;25.10;87.60
34644;DHT22;26931;43.498;-1.506;2022-10-18T17:55:19;25.10;87.80
34644;DHT22;26931;43.498;-1.506;2022-10-18T17:57:46;25.00;87.90
34644;DHT22;26931;43.498;-1.506;2022-10-18T18:00:12;24.90;88.00
34644;DHT22;26931;43.498;-1.506;2022-10-18T18:02:39;24.90;88.20
34644;DHT22;26931;43.498;-1.506;2022-10-18T18:05:05;24.90;88.10